sensor_id;sensor_type;location;lat;lon;timestamp;pressure;altitude;pressure_sealevel;temperature;humidity
62103;BME280;48077;48.104;11.702;2022-12-07T00:01:42;95407.19;;;0.82;100.00
62103;BME280;48077;48.104;11.702;2022-12-07T00:04:07;95418.97;;;0.86;100.00
62103;BME280;48077;48.104;11.702;2022-12-07T00:06:39;95414.22;;;0.81;100.00
62103;BME280;48077;48.104;11.702;2022-12-07T00:09:04;95416.03;;;0.80;100.00
62103;BME280;48077;48.104;11.702;2022-12-07T00:11:28;95416.03;;;0.80;100.00
62103;BME280;48077;48.104;11.702;2022-12-07T00:13:54;95416.19;;;0.79;100.00
62103;BME280;48077;48.104;11.702;2022-12-07T00:16:19;95417.84;;;0.80;100.00
62103;BME280;48077;48.104;11.702;2022-12-07T00:18:44;95386.91;;;0.67;100.00
62103;BME280;48077;48.104;11.702;2022-12-07T00:21:18;95401.13;;;0.73;100.00
62103;BME280;48077;48.104;11.702;2022-12-07T00:23:43;95390.00;;;0.71;100.00
62103;BME280;48077;48.104;11.702;2022-12-07T00:26:09;95394.53;;;0.77;100.00
62103;BME280;48077;48.104;11.702;2022-12-07T00:28:33;95402.25;;;0.78;100.00
62103;BME280;48077;48.104;11.702;2022-12-07T00:31:02;95401.59;;;0.76;100.00
62103;BME280;48077;48.104;11.702;2022-12-07T00:33:26;95399.63;;;0.78;100.00
62103;BME280;48077;48.104;11.702;2022-12-07T00:35:56;95394.25;;;0.72;100.00
62103;BME280;48077;48.104;11.702;2022-12-07T00:38:19;95390.63;;;0.73;100.00
62103;BME280;48077;48.104;11.702;2022-12-07T00:40:43;95379.69;;;0.69;100.00
62103;BME280;48077;48.104;11.702;2022-12-07T00:43:06;95398.47;;;0.81;100.00
62103;BME280;48077;48.104;11.702;2022-12-07T00:45:32;95400.09;;;0.82;100.00
62103;BME280;48077;48.104;11.702;2022-12-07T00:47:55;95391.59;;;0.80;100.00
62103;BME280;48077;48.104;11.702;2022-12-07T00:50:21;95391.91;;;0.77;100.00
62103;BME280;48077;48.104;11.702;2022-12-07T00:52:44;95386.38;;;0.72;100.00
62103;BME280;48077;48.104;11.702;2022-12-07T00:55:08;95398.13;;;0.84;100.00
62103;BME280;48077;48.104;11.702;2022-12-07T00:57:31;95402.38;;;0.85;100.00
62103;BME280;48077;48.104;11.702;2022-12-07T00:59:54;95401.56;;;0.85;100.00
62103;BME280;48077;48.104;11.702;2022-12-07T01:02:21;95406.16;;;0.83;100.00
62103;BME280;48077;48.104;11.702;2022-12-07T01:04:45;95385.22;;;0.74;100.00
62103;BME280;48077;48.104;11.702;2022-12-07T01:07:08;95401.28;;;0.79;100.00
62103;BME280;48077;48.104;11.702;2022-12-07T01:09:31;95396.84;;;0.80;100.00
62103;BME280;48077;48.104;11.702;2022-12-07T01:11:55;95389.66;;;0.74;100.00
62103;BME280;48077;48.104;11.702;2022-12-07T01:14:19;95392.28;;;0.74;100.00
62103;BME280;48077;48.104;11.702;2022-12-07T01:16:42;95401.28;;;0.79;100.00
62103;BME280;48077;48.104;11.702;2022-12-07T01:19:05;95400.44;;;0.79;100.00
62103;BME280;48077;48.104;11.702;2022-12-07T01:21:31;95409.50;;;0.76;100.00
62103;BME280;48077;48.104;11.702;2022-12-07T01:23:59;95390.19;;;0.69;100.00
62103;BME280;48077;48.104;11.702;2022-12-07T01:26:25;95391.16;;;0.68;100.00
62103;BME280;48077;48.104;11.702;2022-12-07T01:28:49;95354.56;;;0.44;100.00
62103;BME280;48077;48.104;11.702;2022-12-07T01:31:15;95400.31;;;0.72;100.00
62103;BME280;48077;48.104;11.702;2022-12-07T01:33:39;95404.59;;;0.73;100.00
62103;BME280;48077;48.104;11.702;2022-12-07T01:36:07;95400.31;;;0.72;100.00
62103;BME280;48077;48.104;11.702;2022-12-07T01:38:32;95395.25;;;0.71;100.00
62103;BME280;48077;48.104;11.702;2022-12-07T01:40:56;95397.06;;;0.70;100.00
62103;BME280;48077;48.104;11.702;2022-12-07T01:43:20;95394.94;;;0.66;100.00
62103;BME280;48077;48.104;11.702;2022-12-07T01:45:45;95399.03;;;0.68;100.00
62103;BME280;48077;48.104;11.702;2022-12-07T01:48:11;95404.75;;;0.72;100.00
62103;BME280;48077;48.104;11.702;2022-12-07T01:50:35;95403.75;;;0.73;100.00
62103;BME280;48077;48.104;11.702;2022-12-07T01:53:04;95393.44;;;0.71;100.00
62103;BME280;48077;48.104;11.702;2022-12-07T01:55:28;95390.63;;;0.73;100.00
62103;BME280;48077;48.104;11.702;2022-12-07T01:57:54;95391.47;;;0.73;100.00
62103;BME280;48077;48.104;11.702;2022-12-07T02:00:18;95386.22;;;0.73;100.00
62103;BME280;48077;48.104;11.702;2022-12-07T02:05:07;95376.59;;;0.66;100.00
62103;BME280;48077;48.104;11.702;2022-12-07T02:07:31;95387.03;;;0.74;100.00
62103;BME280;48077;48.104;11.702;2022-12-07T02:09:56;95372.94;;;0.67;100.00
62103;BME280;48077;48.104;11.702;2022-12-07T02:12:20;95388.47;;;0.76;100.00
62103;BME280;48077;48.104;11.702;2022-12-07T02:14:44;95390.31;;;0.76;100.00
62103;BME280;48077;48.104;11.702;2022-12-07T02:17:31;95385.06;;;0.76;100.00
62103;BME280;48077;48.104;11.702;2022-12-07T02:20:17;95382.25;;;0.77;100.00
62103;BME280;48077;48.104;11.702;2022-12-07T02:26:12;95383.75;;;0.72;100.00
62103;BME280;48077;48.104;11.702;2022-12-07T02:31:33;95368.34;;;0.69;100.00
62103;BME280;48077;48.104;11.702;2022-12-07T02:34:14;95359.38;;;0.63;100.00
62103;BME280;48077;48.104;11.702;2022-12-07T02:36:49;95372.25;;;0.73;100.00
62103;BME280;48077;48.104;11.702;2022-12-07T02:39:18;95384.88;;;0.77;100.00
62103;BME280;48077;48.104;11.702;2022-12-07T02:41:47;95368.66;;;0.74;100.00
62103;BME280;48077;48.104;11.702;2022-12-07T02:44:14;95377.00;;;0.77;100.00
62103;BME280;48077;48.104;11.702;2022-12-07T02:46:42;95382.25;;;0.77;100.00
62103;BME280;48077;48.104;11.702;2022-12-07T02:49:07;95370.63;;;0.72;100.00
62103;BME280;48077;48.104;11.702;2022-12-07T02:51:32;95380.44;;;0.78;100.00
62103;BME280;48077;48.104;11.702;2022-12-07T02:53:56;95358.84;;;0.68;100.00
62103;BME280;48077;48.104;11.702;2022-12-07T02:59:07;95373.09;;;0.73;100.00
62103;BME280;48077;48.104;11.702;2022-12-07T03:06:53;95373.75;;;0.75;100.00
62103;BME280;48077;48.104;11.702;2022-12-07T03:09:32;95361.94;;;0.71;100.00
62103;BME280;48077;48.104;11.702;2022-12-07T03:12:09;95376.81;;;0.79;100.00
62103;BME280;48077;48.104;11.702;2022-12-07T03:14:40;95370.91;;;0.77;100.00
62103;BME280;48077;48.104;11.702;2022-12-07T03:17:10;95372.72;;;0.76;100.00
62103;BME280;48077;48.104;11.702;2022-12-07T03:19:36;95371.13;;;0.75;100.00
62103;BME280;48077;48.104;11.702;2022-12-07T03:22:03;95373.91;;;0.74;100.00
62103;BME280;48077;48.104;11.702;2022-12-07T03:24:34;95366.84;;;0.74;100.00
62103;BME280;48077;48.104;11.702;2022-12-07T03:27:07;95361.47;;;0.68;100.00
62103;BME280;48077;48.104;11.702;2022-12-07T03:29:38;95374.88;;;0.73;100.00
62103;BME280;48077;48.104;11.702;2022-12-07T03:32:20;95363.28;;;0.67;100.00
62103;BME280;48077;48.104;11.702;2022-12-07T03:34:52;95373.44;;;0.70;100.00
62103;BME280;48077;48.104;11.702;2022-12-07T03:37:29;95346.78;;;0.58;100.00
62103;BME280;48077;48.104;11.702;2022-12-07T03:40:11;95368.19;;;0.70;100.00
62103;BME280;48077;48.104;11.702;2022-12-07T03:42:38;95352.47;;;0.62;100.00
62103;BME280;48077;48.104;11.702;2022-12-07T03:45:03;95356.38;;;0.66;100.00
62103;BME280;48077;48.104;11.702;2022-12-07T03:47:49;95354.78;;;0.65;100.00
62103;BME280;48077;48.104;11.702;2022-12-07T03:50:28;95360.13;;;0.72;100.00
62103;BME280;48077;48.104;11.702;2022-12-07T03:53:07;95359.13;;;0.73;100.00
62103;BME280;48077;48.104;11.702;2022-12-07T03:55:34;95363.94;;;0.69;100.00
62103;BME280;48077;48.104;11.702;2022-12-07T03:58:03;95360.13;;;0.72;100.00
62103;BME280;48077;48.104;11.702;2022-12-07T04:00:28;95353.88;;;0.73;100.00
62103;BME280;48077;48.104;11.702;2022-12-07T04:02:52;95351.44;;;0.71;100.00
62103;BME280;48077;48.104;11.702;2022-12-07T04:05:16;95352.25;;;0.72;100.00
62103;BME280;48077;48.104;11.702;2022-12-07T04:07:40;95349.28;;;0.75;100.00
62103;BME280;48077;48.104;11.702;2022-12-07T04:10:04;95336.03;;;0.68;100.00
62103;BME280;48077;48.104;11.702;2022-12-07T04:12:28;95352.72;;;0.75;100.00
62103;BME280;48077;48.104;11.702;2022-12-07T04:14:51;95347.97;;;0.71;100.00
62103;BME280;48077;48.104;11.702;2022-12-07T04:17:15;95349.16;;;0.68;100.00
62103;BME280;48077;48.104;11.702;2022-12-07T04:19:38;95345.19;;;0.72;100.00
62103;BME280;48077;48.104;11.702;2022-12-07T04:22:03;95334.94;;;0.63;100.00
62103;BME280;48077;48.104;11.702;2022-12-07T04:24:26;95341.66;;;0.65;100.00
62103;BME280;48077;48.104;11.702;2022-12-07T04:26:50;95351.44;;;0.71;100.00
62103;BME280;48077;48.104;11.702;2022-12-07T04:29:15;95340.63;;;0.66;100.00
62103;BME280;48077;48.104;11.702;2022-12-07T04:31:38;95353.06;;;0.72;100.00
62103;BME280;48077;48.104;11.702;2022-12-07T04:34:02;95352.44;;;0.70;100.00
62103;BME280;48077;48.104;11.702;2022-12-07T04:36:25;95344.44;;;0.64;100.00
62103;BME280;48077;48.104;11.702;2022-12-07T04:38:49;95350.59;;;0.71;100.00
62103;BME280;48077;48.104;11.702;2022-12-07T04:41:13;95356.88;;;0.70;100.00
62103;BME280;48077;48.104;11.702;2022-12-07T04:43:37;95355.06;;;0.70;100.00
62103;BME280;48077;48.104;11.702;2022-12-07T04:46:01;95353.44;;;0.69;100.00
62103;BME280;48077;48.104;11.702;2022-12-07T04:48:24;95353.44;;;0.69;100.00
62103;BME280;48077;48.104;11.702;2022-12-07T04:50:48;95343.63;;;0.63;100.00
62103;BME280;48077;48.104;11.702;2022-12-07T04:53:12;95325.84;;;0.50;100.00
62103;BME280;48077;48.104;11.702;2022-12-07T04:55:36;95348.50;;;0.66;100.00
62103;BME280;48077;48.104;11.702;2022-12-07T04:57:59;95323.84;;;0.52;100.00
62103;BME280;48077;48.104;11.702;2022-12-07T05:00:22;95353.97;;;0.65;100.00
62103;BME280;48077;48.104;11.702;2022-12-07T05:02:46;95334.34;;;0.52;100.00
62103;BME280;48077;48.104;11.702;2022-12-07T05:05:09;95347.28;;;0.54;100.00
62103;BME280;48077;48.104;11.702;2022-12-07T05:07:32;95349.75;;;0.55;100.00
62103;BME280;48077;48.104;11.702;2022-12-07T05:09:56;95356.63;;;0.56;100.00
62103;BME280;48077;48.104;11.702;2022-12-07T05:12:19;95356.00;;;0.54;100.00
62103;BME280;48077;48.104;11.702;2022-12-07T05:14:42;95339.00;;;0.42;100.00
62103;BME280;48077;48.104;11.702;2022-12-07T05:17:06;95360.41;;;0.54;100.00
62103;BME280;48077;48.104;11.702;2022-12-07T05:19:29;95346.53;;;0.45;100.00
62103;BME280;48077;48.104;11.702;2022-12-07T05:21:53;95337.53;;;0.39;100.00
62103;BME280;48077;48.104;11.702;2022-12-07T05:24:16;95358.47;;;0.48;100.00
62103;BME280;48077;48.104;11.702;2022-12-07T05:26:41;95340.66;;;0.35;100.00
62103;BME280;48077;48.104;11.702;2022-12-07T05:29:04;95348.03;;;0.39;100.00
62103;BME280;48077;48.104;11.702;2022-12-07T05:31:28;95352.47;;;0.39;100.00
62103;BME280;48077;48.104;11.702;2022-12-07T05:33:52;95356.53;;;0.42;100.00
62103;BME280;48077;48.104;11.702;2022-12-07T05:36:16;95353.09;;;0.41;100.00
62103;BME280;48077;48.104;11.702;2022-12-07T05:38:39;95345.91;;;0.35;100.00
62103;BME280;48077;48.104;11.702;2022-12-07T05:41:04;95342.31;;;0.36;100.00
62103;BME280;48077;48.104;11.702;2022-12-07T05:43:28;95338.22;;;0.33;100.00
62103;BME280;48077;48.104;11.702;2022-12-07T05:45:52;95349.03;;;0.38;100.00
62103;BME280;48077;48.104;11.702;2022-12-07T05:48:15;95338.22;;;0.33;100.00
62103;BME280;48077;48.104;11.702;2022-12-07T05:50:38;95337.25;;;0.34;100.00
62103;BME280;48077;48.104;11.702;2022-12-07T05:53:02;95316.97;;;0.20;100.00
62103;BME280;48077;48.104;11.702;2022-12-07T05:55:25;95338.84;;;0.35;100.00
62103;BME280;48077;48.104;11.702;2022-12-07T05:57:48;95349.50;;;0.42;100.00
62103;BME280;48077;48.104;11.702;2022-12-07T06:00:30;95348.84;;;0.40;100.00
62103;BME280;48077;48.104;11.702;2022-12-07T06:02:54;95336.75;;;0.31;100.00
62103;BME280;48077;48.104;11.702;2022-12-07T06:05:17;95354.56;;;0.44;100.00
62103;BME280;48077;48.104;11.702;2022-12-07T06:07:41;95359.81;;;0.44;100.00
62103;BME280;48077;48.104;11.702;2022-12-07T06:10:04;95364.41;;;0.42;100.00
62103;BME280;48077;48.104;11.702;2022-12-07T06:12:28;95357.53;;;0.40;100.00
62103;BME280;48077;48.104;11.702;2022-12-07T06:14:57;95360.00;;;0.42;100.00
62103;BME280;48077;48.104;11.702;2022-12-07T06:17:20;95359.16;;;0.42;100.00
62103;BME280;48077;48.104;11.702;2022-12-07T06:19:43;95361.81;;;0.33;100.00
62103;BME280;48077;48.104;11.702;2022-12-07T06:22:07;95381.03;;;0.34;100.00
62103;BME280;48077;48.104;11.702;2022-12-07T06:24:32;95371.50;;;0.33;100.00
62103;BME280;48077;48.104;11.702;2022-12-07T06:26:56;95375.44;;;0.37;100.00
62103;BME280;48077;48.104;11.702;2022-12-07T06:29:20;95358.63;;;0.23;100.00
62103;BME280;48077;48.104;11.702;2022-12-07T06:31:43;95386.56;;;0.39;100.00
62103;BME280;48077;48.104;11.702;2022-12-07T06:34:10;95378.06;;;0.37;100.00
62103;BME280;48077;48.104;11.702;2022-12-07T06:36:37;95360.41;;;0.23;100.00
62103;BME280;48077;48.104;11.702;2022-12-07T06:39:00;95385.13;;;0.36;100.00
62103;BME280;48077;48.104;11.702;2022-12-07T06:41:24;95370.88;;;0.31;100.00
62103;BME280;48077;48.104;11.702;2022-12-07T06:43:47;95385.13;;;0.36;100.00
62103;BME280;48077;48.104;11.702;2022-12-07T06:46:11;95366.63;;;0.30;100.00
62103;BME280;48077;48.104;11.702;2022-12-07T06:48:34;95361.69;;;0.27;100.00
62103;BME280;48077;48.104;11.702;2022-12-07T06:50:57;95376.06;;;0.39;100.00
62103;BME280;48077;48.104;11.702;2022-12-07T06:53:21;95363.69;;;0.25;100.00
62103;BME280;48077;48.104;11.702;2022-12-07T06:55:45;95366.31;;;0.25;100.00
62103;BME280;48077;48.104;11.702;2022-12-07T06:58:08;95400.69;;;0.38;100.00
62103;BME280;48077;48.104;11.702;2022-12-07T07:00:31;95363.72;;;0.16;100.00
62103;BME280;48077;48.104;11.702;2022-12-07T07:02:58;95392.34;;;0.34;100.00
62103;BME280;48077;48.104;11.702;2022-12-07T07:05:21;95383.34;;;0.29;100.00
62103;BME280;48077;48.104;11.702;2022-12-07T07:07:45;95394.97;;;0.34;100.00
62103;BME280;48077;48.104;11.702;2022-12-07T07:10:09;95393.16;;;0.35;100.00
62103;BME280;48077;48.104;11.702;2022-12-07T07:12:32;95389.22;;;0.31;100.00
62103;BME280;48077;48.104;11.702;2022-12-07T07:14:55;95394.16;;;0.34;100.00
62103;BME280;48077;48.104;11.702;2022-12-07T07:17:19;95386.97;;;0.28;100.00
62103;BME280;48077;48.104;11.702;2022-12-07T07:19:43;95380.44;;;0.24;100.00
62103;BME280;48077;48.104;11.702;2022-12-07T07:22:06;95402.84;;;0.34;100.00
62103;BME280;48077;48.104;11.702;2022-12-07T07:24:29;95400.22;;;0.34;100.00
62103;BME280;48077;48.104;11.702;2022-12-07T07:26:53;95397.41;;;0.36;100.00
62103;BME280;48077;48.104;11.702;2022-12-07T07:29:16;95399.69;;;0.39;100.00
62103;BME280;48077;48.104;11.702;2022-12-07T07:31:40;95406.59;;;0.40;100.00
62103;BME280;48077;48.104;11.702;2022-12-07T07:34:03;95402.16;;;0.40;100.00
62103;BME280;48077;48.104;11.702;2022-12-07T07:36:27;95409.84;;;0.42;100.00
62103;BME280;48077;48.104;11.702;2022-12-07T07:38:50;95394.66;;;0.29;100.00
62103;BME280;48077;48.104;11.702;2022-12-07T07:41:13;95419.19;;;0.45;100.00
62103;BME280;48077;48.104;11.702;2022-12-07T07:43:37;95412.78;;;0.47;100.00
62103;BME280;48077;48.104;11.702;2022-12-07T07:46:00;95398.88;;;0.38;100.00
62103;BME280;48077;48.104;11.702;2022-12-07T07:48:26;95406.72;;;0.47;100.00
62103;BME280;48077;48.104;11.702;2022-12-07T07:50:49;95416.41;;;0.46;100.00
62103;BME280;48077;48.104;11.702;2022-12-07T07:53:13;95391.53;;;0.34;100.00
62103;BME280;48077;48.104;11.702;2022-12-07T07:55:36;95397.59;;;0.34;100.00
62103;BME280;48077;48.104;11.702;2022-12-07T07:58:00;95402.66;;;0.36;100.00
62103;BME280;48077;48.104;11.702;2022-12-07T08:00:26;95401.81;;;0.35;100.00
62103;BME280;48077;48.104;11.702;2022-12-07T08:02:49;95400.03;;;0.36;100.00
62103;BME280;48077;48.104;11.702;2022-12-07T08:05:13;95411.00;;;0.39;100.00
62103;BME280;48077;48.104;11.702;2022-12-07T08:07:36;95413.63;;;0.39;100.00
62103;BME280;48077;48.104;11.702;2022-12-07T08:10:00;95398.28;;;0.28;100.00
62103;BME280;48077;48.104;11.702;2022-12-07T08:12:23;95426.41;;;0.43;100.00
62103;BME280;48077;48.104;11.702;2022-12-07T08:14:47;95408.88;;;0.35;100.00
62103;BME280;48077;48.104;11.702;2022-12-07T08:17:10;95412.50;;;0.34;100.00
62103;BME280;48077;48.104;11.702;2022-12-07T08:19:34;95403.00;;;0.33;100.00
62103;BME280;48077;48.104;11.702;2022-12-07T08:21:57;95412.31;;;0.35;100.00
62103;BME280;48077;48.104;11.702;2022-12-07T08:24:21;95417.53;;;0.44;100.00
62103;BME280;48077;48.104;11.702;2022-12-07T08:26:45;95412.97;;;0.37;100.00
62103;BME280;48077;48.104;11.702;2022-12-07T08:29:08;95415.41;;;0.47;100.00
62103;BME280;48077;48.104;11.702;2022-12-07T08:31:32;95425.19;;;0.53;100.00
62103;BME280;48077;48.104;11.702;2022-12-07T08:33:55;95420.97;;;0.52;100.00
62103;BME280;48077;48.104;11.702;2022-12-07T08:36:19;95414.88;;;0.52;100.00
62103;BME280;48077;48.104;11.702;2022-12-07T08:38:42;95401.16;;;0.42;100.00
62103;BME280;48077;48.104;11.702;2022-12-07T08:41:07;95431.41;;;0.60;100.00
62103;BME280;48077;48.104;11.702;2022-12-07T08:43:30;95426.81;;;0.63;100.00
62103;BME280;48077;48.104;11.702;2022-12-07T08:48:34;95425.66;;;0.65;100.00
62103;BME280;48077;48.104;11.702;2022-12-07T08:51:02;95425.94;;;0.70;100.00
62103;BME280;48077;48.104;11.702;2022-12-07T08:53:26;95429.03;;;0.74;100.00
62103;BME280;48077;48.104;11.702;2022-12-07T08:55:50;95413.44;;;0.72;100.00
62103;BME280;48077;48.104;11.702;2022-12-07T08:58:14;95423.09;;;0.80;100.00
62103;BME280;48077;48.104;11.702;2022-12-07T09:00:37;95409.00;;;0.73;100.00
62103;BME280;48077;48.104;11.702;2022-12-07T09:03:00;95414.22;;;0.81;100.00
62103;BME280;48077;48.104;11.702;2022-12-07T09:05:24;95410.44;;;0.84;100.00
62103;BME280;48077;48.104;11.702;2022-12-07T09:07:50;95401.59;;;0.76;100.00
62103;BME280;48077;48.104;11.702;2022-12-07T09:10:14;95399.50;;;0.72;100.00
62103;BME280;48077;48.104;11.702;2022-12-07T09:12:38;95433.03;;;0.93;100.00
62103;BME280;48077;48.104;11.702;2022-12-07T09:15:01;95421.22;;;0.89;100.00
62103;BME280;48077;48.104;11.702;2022-12-07T09:17:25;95401.94;;;0.82;100.00
62103;BME280;48077;48.104;11.702;2022-12-07T09:19:49;95424.63;;;0.97;100.00
62103;BME280;48077;48.104;11.702;2022-12-07T09:22:12;95419.34;;;0.97;100.00
62103;BME280;48077;48.104;11.702;2022-12-07T09:24:36;95403.16;;;0.94;100.00
62103;BME280;48077;48.104;11.702;2022-12-07T09:26:59;95419.13;;;1.07;100.00
62103;BME280;48077;48.104;11.702;2022-12-07T09:29:22;95417.97;;;1.10;100.00
62103;BME280;48077;48.104;11.702;2022-12-07T09:31:46;95389.19;;;0.93;100.00
62103;BME280;48077;48.104;11.702;2022-12-07T09:34:09;95419.09;;;1.15;100.00
62103;BME280;48077;48.104;11.702;2022-12-07T09:36:33;95400.84;;;1.14;100.00
62103;BME280;48077;48.104;11.702;2022-12-07T09:38:56;95413.41;;;1.27;100.00
62103;BME280;48077;48.104;11.702;2022-12-07T09:41:21;95412.88;;;1.31;100.00
62103;BME280;48077;48.104;11.702;2022-12-07T09:43:45;95397.47;;;1.28;100.00
62103;BME280;48077;48.104;11.702;2022-12-07T09:46:15;95402.47;;;1.38;100.00
62103;BME280;48077;48.104;11.702;2022-12-07T09:48:42;95398.31;;;1.44;100.00
62103;BME280;48077;48.104;11.702;2022-12-07T09:53:38;95404.50;;;1.51;100.00
62103;BME280;48077;48.104;11.702;2022-12-07T09:56:02;95400.22;;;1.50;100.00
62103;BME280;48077;48.104;11.702;2022-12-07T09:58:29;95400.59;;;1.47;100.00
62103;BME280;48077;48.104;11.702;2022-12-07T10:00:57;95384.00;;;1.46;100.00
62103;BME280;48077;48.104;11.702;2022-12-07T10:03:21;95397.72;;;1.56;100.00
62103;BME280;48077;48.104;11.702;2022-12-07T10:05:46;95397.81;;;1.63;100.00
62103;BME280;48077;48.104;11.702;2022-12-07T10:08:12;95386.66;;;1.61;100.00
62103;BME280;48077;48.104;11.702;2022-12-07T10:10:39;95382.94;;;1.70;100.00
62103;BME280;48077;48.104;11.702;2022-12-07T10:13:05;95363.97;;;1.60;100.00
62103;BME280;48077;48.104;11.702;2022-12-07T10:23:39;95374.41;;;1.83;100.00
62103;BME280;48077;48.104;11.702;2022-12-07T10:26:29;95386.13;;;1.95;100.00
62103;BME280;48077;48.104;11.702;2022-12-07T10:28:53;95379.88;;;1.96;100.00
62103;BME280;48077;48.104;11.702;2022-12-07T10:31:19;95384.41;;;2.02;100.00
62103;BME280;48077;48.104;11.702;2022-12-07T10:33:54;95380.50;;;1.98;100.00
62103;BME280;48077;48.104;11.702;2022-12-07T10:36:37;95386.50;;;2.07;100.00
62103;BME280;48077;48.104;11.702;2022-12-07T10:41:27;95384.13;;;2.12;100.00
62103;BME280;48077;48.104;11.702;2022-12-07T10:43:56;95372.44;;;2.15;100.00
62103;BME280;48077;48.104;11.702;2022-12-07T10:49:22;95373.31;;;2.22;100.00
62103;BME280;48077;48.104;11.702;2022-12-07T10:57:32;95373.69;;;2.34;100.00
62103;BME280;48077;48.104;11.702;2022-12-07T11:00:21;95361.06;;;2.29;100.00
62103;BME280;48077;48.104;11.702;2022-12-07T11:11:36;95331.25;;;2.43;100.00
62103;BME280;48077;48.104;11.702;2022-12-07T11:14:03;95351.56;;;2.50;100.00
62103;BME280;48077;48.104;11.702;2022-12-07T11:16:52;95347.34;;;2.70;99.88
62103;BME280;48077;48.104;11.702;2022-12-07T11:19:27;95340.84;;;2.88;99.86
62103;BME280;48077;48.104;11.702;2022-12-07T11:21:56;95341.63;;;3.10;98.00
62103;BME280;48077;48.104;11.702;2022-12-07T11:24:57;95342.03;;;3.07;98.17
62103;BME280;48077;48.104;11.702;2022-12-07T11:27:44;95339.69;;;3.47;95.00
62103;BME280;48077;48.104;11.702;2022-12-07T11:37:49;95320.03;;;3.49;90.79
62103;BME280;48077;48.104;11.702;2022-12-07T11:40:24;95321.19;;;3.40;91.05
62103;BME280;48077;48.104;11.702;2022-12-07T11:42:56;95333.41;;;3.48;90.43
62103;BME280;48077;48.104;11.702;2022-12-07T11:45:26;95315.56;;;3.21;90.70
62103;BME280;48077;48.104;11.702;2022-12-07T11:47:59;95324.97;;;3.02;91.93
62103;BME280;48077;48.104;11.702;2022-12-07T11:53:02;95320.06;;;2.78;93.21
62103;BME280;48077;48.104;11.702;2022-12-07T11:55:43;95308.84;;;2.69;94.60
62103;BME280;48077;48.104;11.702;2022-12-07T12:03:34;95299.94;;;2.70;96.37
62103;BME280;48077;48.104;11.702;2022-12-07T12:06:00;95301.19;;;2.74;96.52
62103;BME280;48077;48.104;11.702;2022-12-07T12:08:28;95297.16;;;2.78;96.57
62103;BME280;48077;48.104;11.702;2022-12-07T12:11:13;95302.25;;;2.80;97.06
62103;BME280;48077;48.104;11.702;2022-12-07T12:13:59;95291.47;;;2.75;96.76
62103;BME280;48077;48.104;11.702;2022-12-07T12:19:57;95294.22;;;2.67;96.24
62103;BME280;48077;48.104;11.702;2022-12-07T12:22:27;95288.31;;;2.64;96.26
62103;BME280;48077;48.104;11.702;2022-12-07T12:24:56;95279.19;;;2.60;95.99
62103;BME280;48077;48.104;11.702;2022-12-07T12:27:33;95279.88;;;2.69;96.44
62103;BME280;48077;48.104;11.702;2022-12-07T12:29:59;95270.97;;;2.70;96.14
62103;BME280;48077;48.104;11.702;2022-12-07T12:32:40;95275.47;;;2.76;96.57
62103;BME280;48077;48.104;11.702;2022-12-07T12:37:52;95279.66;;;2.92;95.21
62103;BME280;48077;48.104;11.702;2022-12-07T12:42:53;95289.63;;;2.97;94.25
62103;BME280;48077;48.104;11.702;2022-12-07T12:50:30;95278.56;;;2.80;94.37
62103;BME280;48077;48.104;11.702;2022-12-07T12:53:03;95253.84;;;2.59;95.01
62103;BME280;48077;48.104;11.702;2022-12-07T13:00:40;95280.41;;;2.43;96.61
62103;BME280;48077;48.104;11.702;2022-12-07T13:03:04;95266.00;;;2.39;96.86
62103;BME280;48077;48.104;11.702;2022-12-07T13:05:31;95271.03;;;2.34;96.47
62103;BME280;48077;48.104;11.702;2022-12-07T13:07:57;95267.13;;;2.30;96.62
62103;BME280;48077;48.104;11.702;2022-12-07T13:17:58;95252.28;;;2.22;96.59
62103;BME280;48077;48.104;11.702;2022-12-07T13:20:46;95268.13;;;2.29;96.72
62103;BME280;48077;48.104;11.702;2022-12-07T13:23:10;95256.34;;;2.25;97.08
62103;BME280;48077;48.104;11.702;2022-12-07T13:25:37;95257.97;;;2.26;98.06
62103;BME280;48077;48.104;11.702;2022-12-07T13:28:14;95257.34;;;2.23;97.89
62103;BME280;48077;48.104;11.702;2022-12-07T13:30:45;95256.09;;;2.19;98.90
62103;BME280;48077;48.104;11.702;2022-12-07T13:33:17;95252.84;;;2.17;98.11
62103;BME280;48077;48.104;11.702;2022-12-07T13:35:41;95248.31;;;2.11;98.44
62103;BME280;48077;48.104;11.702;2022-12-07T13:38:19;95259.19;;;2.08;98.07
62103;BME280;48077;48.104;11.702;2022-12-07T13:41:21;95249.16;;;1.97;98.36
62103;BME280;48077;48.104;11.702;2022-12-07T13:43:51;95254.81;;;1.94;98.70
62103;BME280;48077;48.104;11.702;2022-12-07T13:46:15;95264.50;;;1.93;99.22
62103;BME280;48077;48.104;11.702;2022-12-07T13:48:47;95258.59;;;1.91;99.06
62103;BME280;48077;48.104;11.702;2022-12-07T13:51:37;95241.13;;;1.84;99.34
62103;BME280;48077;48.104;11.702;2022-12-07T13:54:11;95249.28;;;1.89;99.24
62103;BME280;48077;48.104;11.702;2022-12-07T13:56:37;95239.88;;;1.79;99.55
62103;BME280;48077;48.104;11.702;2022-12-07T13:59:02;95239.66;;;1.81;99.70
62103;BME280;48077;48.104;11.702;2022-12-07T14:01:30;95228.81;;;1.69;99.55
62103;BME280;48077;48.104;11.702;2022-12-07T14:03:54;95247.13;;;1.77;99.89
62103;BME280;48077;48.104;11.702;2022-12-07T14:06:22;95254.56;;;1.74;100.00
62103;BME280;48077;48.104;11.702;2022-12-07T14:08:48;95252.91;;;1.73;100.00
62103;BME280;48077;48.104;11.702;2022-12-07T14:11:20;95250.28;;;1.73;100.00
62103;BME280;48077;48.104;11.702;2022-12-07T14:13:51;95240.31;;;1.68;100.00
62103;BME280;48077;48.104;11.702;2022-12-07T14:16:25;95250.66;;;1.70;100.00
62103;BME280;48077;48.104;11.702;2022-12-07T14:18:50;95246.22;;;1.70;100.00
62103;BME280;48077;48.104;11.702;2022-12-07T14:23:39;95246.22;;;1.70;100.00
62103;BME280;48077;48.104;11.702;2022-12-07T14:26:19;95248.22;;;1.68;100.00